Change the Weather History Date:

Friday, May 16, 2014

  Actual Average Record
Temperature  
Mean Temperature 52 °F -  
Max Temperature 64 °F 63 °F 79 °F (1988)
Min Temperature 39 °F 32 °F 16 °F (1955)
Degree Days  
Heating Degree Days 14    
Growing Degree Days 2 (Base 50)    
Moisture  
Dew Point 32 °F    
Average Humidity 49    
Maximum Humidity 76    
Minimum Humidity 30    
Precipitation  
Precipitation 0.01 in - - ()
Sea Level Pressure  
Sea Level Pressure 30.19 in    
Wind  
Wind Speed 7 mph (NNW)    
Max Wind Speed 20 mph    
Max Gust Speed 25 mph    
Visibility 10 miles    
Events Rain , Thunderstorm    
Averages and records for this station are not official NWS values.
T = Trace of Precipitation, MM = Missing Value Source: NWS Daily Summary

Daily Weather History Graph

Daily Weather History Graph

Search for Another Location

Airport or City:

Trip Planner

Search our weather history database for the weather conditions in past years. The results will help you decide how hot, cold, wet, or windy it might be!

Date:

Astronomy

May. 16, 2014 Rise Set
Actual Time 6:01 AM MDT 8:36 PM MDT
Civil Twilight 5:29 AM MDT 9:08 PM MDT
Nautical Twilight 4:49 AM MDT 9:48 PM MDT
Astronomical Twilight 4:04 AM MDT 10:33 PM MDT
Moon 10:46 PM MDT (5/16) 7:46 AM MDT (5/16)
Length of Visible Light 15h 39m
Length of Day
14h 35m
Waning Gibbous, 95% of the Moon is Illuminated
May 16
Waning Gibbous
May 21
Last Quarter
May 28
New
Jun 5
First Quarter
Jun 12
Full

Hourly Weather History & Observations

Time (MDT) Temp. Windchill Dew Point Humidity Pressure Visibility Wind Dir Wind Speed Gust Speed Precip Events Conditions
12:15 AM 48.2 °F - 32.0 °F 54% 30.27 in 10.0 mi West 6.9 mph - N/A   Clear
12:35 AM 46.4 °F 42.9 °F 32.0 °F 57% 30.26 in 10.0 mi WSW 6.9 mph - N/A   Clear
12:55 AM 46.4 °F 43.5 °F 30.2 °F 53% 30.25 in 10.0 mi WSW 5.8 mph - N/A   Clear
1:15 AM 46.4 °F 43.5 °F 30.2 °F 53% 30.25 in 10.0 mi West 5.8 mph - N/A   Clear
1:35 AM 46.4 °F 45.2 °F 30.2 °F 53% 30.24 in 10.0 mi West 3.5 mph - N/A   Clear
1:55 AM 46.4 °F - 30.2 °F 53% 30.24 in 10.0 mi Calm Calm - N/A   Clear
2:15 AM 48.2 °F - 30.2 °F 50% 30.24 in 10.0 mi Calm Calm - N/A   Clear
2:35 AM 48.2 °F - 30.2 °F 50% 30.23 in 10.0 mi Calm Calm - N/A   Clear
2:55 AM 46.4 °F - 30.2 °F 53% 30.22 in 10.0 mi Calm Calm - N/A   Clear
3:15 AM 44.6 °F - 30.2 °F 57% 30.22 in 10.0 mi Calm Calm - N/A   Clear
3:35 AM 42.8 °F 40.1 °F 30.2 °F 61% 30.21 in 10.0 mi North 4.6 mph - N/A   Clear
3:55 AM 42.8 °F 40.1 °F 30.2 °F 61% 30.21 in 10.0 mi North 4.6 mph - N/A   Clear
4:15 AM 42.8 °F 41.1 °F 30.2 °F 61% 30.21 in 10.0 mi North 3.5 mph - N/A   Clear
4:35 AM 42.8 °F - 30.2 °F 61% 30.20 in 10.0 mi Calm Calm - N/A   Clear
4:55 AM 42.8 °F - 30.2 °F 61% 30.20 in 10.0 mi Calm Calm - N/A   Clear
5:15 AM 41.0 °F 39.0 °F 30.2 °F 65% 30.20 in 10.0 mi North 3.5 mph - N/A   Clear
5:35 AM 41.0 °F 38.0 °F 30.2 °F 65% 30.20 in 10.0 mi North 4.6 mph - N/A   Clear
5:55 AM 39.2 °F 33.6 °F 32.0 °F 75% 30.20 in 10.0 mi NNW 8.1 mph - N/A   Clear
6:15 AM 39.2 °F 33.0 °F 30.2 °F 70% 30.20 in 10.0 mi NNW 9.2 mph - N/A   Clear
6:35 AM 41.0 °F 35.8 °F 32.0 °F 70% 30.21 in 10.0 mi NNW 8.1 mph - N/A   Clear
6:55 AM 41.0 °F 39.0 °F 32.0 °F 70% 30.21 in 10.0 mi NW 3.5 mph - N/A   Clear
7:15 AM 39.2 °F 35.0 °F 32.0 °F 75% 30.21 in 10.0 mi North 5.8 mph - N/A   Clear
7:35 AM 42.8 °F 39.3 °F 32.0 °F 66% 30.21 in 10.0 mi NNW 5.8 mph - N/A   Clear
7:55 AM 44.6 °F 41.4 °F 33.8 °F 66% 30.22 in 10.0 mi North 5.8 mph - N/A   Clear
8:15 AM 46.4 °F 42.9 °F 32.0 °F 57% 30.22 in 10.0 mi NNW 6.9 mph - N/A   Mostly Cloudy
8:35 AM 46.4 °F - 32.0 °F 57% 30.22 in 10.0 mi Calm Calm - N/A   Scattered Clouds
8:55 AM 51.8 °F - 32.0 °F 47% 30.22 in 10.0 mi Calm Calm - N/A   Mostly Cloudy
9:15 AM 50.0 °F - 32.0 °F 50% 30.23 in 10.0 mi North 4.6 mph - N/A   Mostly Cloudy
9:35 AM 53.6 °F - 32.0 °F 44% 30.22 in 10.0 mi North 3.5 mph - N/A   Clear
9:55 AM 57.2 °F - 32.0 °F 38% 30.22 in 10.0 mi NW 6.9 mph - N/A   Clear
10:15 AM 60.8 °F - 30.2 °F 31% 30.22 in 10.0 mi NNW 15.0 mph 21.9 mph N/A   Clear
10:35 AM 59.0 °F - 30.2 °F 34% 30.22 in 10.0 mi NNW 11.5 mph - N/A   Clear
10:55 AM 59.0 °F - 30.2 °F 34% 30.22 in 10.0 mi NNW 16.1 mph 20.7 mph N/A   Scattered Clouds
11:15 AM 62.6 °F - 30.2 °F 30% 30.22 in 10.0 mi NNW 15.0 mph 23.0 mph N/A   Scattered Clouds
11:35 AM 62.6 °F - 32.0 °F 32% 30.22 in 10.0 mi NNW 15.0 mph 19.6 mph N/A   Scattered Clouds
11:55 AM 60.8 °F - 32.0 °F 34% 30.22 in 10.0 mi NNW 17.3 mph 21.9 mph N/A   Scattered Clouds
12:15 PM 62.6 °F - 32.0 °F 32% 30.20 in 10.0 mi NNW 11.5 mph 20.7 mph N/A   Scattered Clouds
12:35 PM 64.4 °F - 32.0 °F 30% 30.20 in 10.0 mi NNW 17.3 mph 24.2 mph N/A   Clear
12:55 PM 64.4 °F - 32.0 °F 30% 30.19 in 10.0 mi NNW 18.4 mph 23.0 mph N/A   Clear
1:15 PM 64.4 °F - 32.0 °F 30% 30.19 in 10.0 mi NW 19.6 mph 25.3 mph N/A   Scattered Clouds
1:35 PM 62.6 °F - 32.0 °F 32% 30.19 in 10.0 mi NW 6.9 mph 21.9 mph N/A   Scattered Clouds
1:55 PM 62.6 °F - 32.0 °F 32% 30.18 in 10.0 mi NW 6.9 mph - N/A   Mostly Cloudy
2:15 PM 62.6 °F - 32.0 °F 32% 30.18 in 10.0 mi NNW 13.8 mph - N/A   Mostly Cloudy
2:35 PM 64.4 °F - 32.0 °F 30% 30.18 in 10.0 mi NW 4.6 mph 20.7 mph N/A   Scattered Clouds
2:55 PM 64.4 °F - 32.0 °F 30% 30.18 in 10.0 mi West 15.0 mph 19.6 mph N/A   Scattered Clouds
3:15 PM 62.6 °F - 32.0 °F 32% 30.17 in 10.0 mi West 9.2 mph - N/A   Scattered Clouds
3:35 PM 62.6 °F - 32.0 °F 32% 30.17 in 10.0 mi West 19.6 mph 25.3 mph N/A Rain Light Rain
3:55 PM 64.4 °F - 32.0 °F 30% 30.15 in 10.0 mi WNW 9.2 mph 23.0 mph N/A   Clear
4:15 PM 64.4 °F - 32.0 °F 30% 30.15 in 10.0 mi West 10.4 mph 16.1 mph N/A Thunderstorm Thunderstorm
4:35 PM 64.4 °F - 32.0 °F 30% 30.15 in 10.0 mi WSW 12.7 mph 18.4 mph N/A   Scattered Clouds
4:55 PM 62.6 °F - 30.2 °F 30% 30.15 in 10.0 mi West 9.2 mph - N/A   Clear
5:15 PM 62.6 °F - 32.0 °F 32% 30.14 in 10.0 mi West 13.8 mph 17.3 mph N/A   Scattered Clouds
5:35 PM 62.6 °F - 32.0 °F 32% 30.14 in 10.0 mi WNW 15.0 mph 18.4 mph N/A   Mostly Cloudy
5:55 PM 62.6 °F - 32.0 °F 32% 30.14 in 10.0 mi WNW 10.4 mph - N/A Thunderstorm Scattered Clouds
6:15 PM 60.8 °F - 32.0 °F 34% 30.12 in 10.0 mi NW 6.9 mph - N/A   Clear
6:35 PM 60.8 °F - 32.0 °F 34% 30.12 in 10.0 mi West 6.9 mph - N/A   Clear
6:55 PM 59.0 °F - 33.8 °F 39% 30.12 in 10.0 mi NNW 5.8 mph - N/A   Clear
7:15 PM 59.0 °F - 33.8 °F 39% 30.12 in 10.0 mi NNW 6.9 mph - N/A   Clear
7:35 PM 57.2 °F - 35.6 °F 44% 30.12 in 10.0 mi North 5.8 mph - N/A   Clear
7:55 PM 55.4 °F - 35.6 °F 47% 30.12 in 10.0 mi North 5.8 mph - N/A   Clear
8:15 PM 53.6 °F - 35.6 °F 51% 30.12 in 10.0 mi North 5.8 mph - N/A   Clear
8:35 PM 51.8 °F - 35.6 °F 54% 30.13 in 10.0 mi North 6.9 mph - N/A   Clear
8:55 PM 50.0 °F - 35.6 °F 58% 30.14 in 10.0 mi NNE 8.1 mph - N/A   Clear
9:15 PM 50.0 °F - 35.6 °F 58% 30.14 in 10.0 mi NNE 6.9 mph - N/A   Mostly Cloudy
9:35 PM 46.4 °F 41.9 °F 37.4 °F 71% 30.14 in 10.0 mi North 9.2 mph - N/A Rain Light Rain
10:15 PM 48.2 °F - 37.4 °F 66% 30.14 in 10.0 mi East 4.6 mph - N/A   Mostly Cloudy
10:35 PM 46.4 °F 41.9 °F 39.2 °F 76% 30.15 in 10.0 mi NNE 9.2 mph - N/A   Mostly Cloudy
10:55 PM 46.4 °F 43.5 °F 37.4 °F 71% 30.14 in 10.0 mi East 5.8 mph - 0.01 in   Overcast
11:15 PM 46.4 °F 43.5 °F 37.4 °F 71% 30.13 in 10.0 mi ESE 5.8 mph - N/A   Mostly Cloudy
11:35 PM 46.4 °F - 35.6 °F 66% 30.13 in 10.0 mi Calm Calm - N/A   Scattered Clouds
11:50 PM 46.4 °F 44.3 °F 35.6 °F 66% 30.13 in 10.0 mi ESE 4.6 mph - N/A   Scattered Clouds